Terminal Aerodrome Forecast
Issued by NWS

Home | Current Version | Previous Version | Graphics & Text | Print | Product List | Glossary On
Versions: 1 2 3 4 5 6 7 8 9 10 11 12 13 14 15 16 17 18 19 20 21 22 23 24 25 26 27 28 29 30 31 32 33
000
FTUS43 KLOT 260500
TAFDPA
TAF
KDPA 260531Z 2606/2706 20007KT P6SM OVC035
     FM260700 19007KT P6SM VCSH OVC025
     FM261100 19007KT P6SM OVC022
     FM261600 20007KT P6SM BKN035
     FM261800 25007KT P6SM SCT035 BKN120
     FM270000 11006KT P6SM BKN120
     FM270400 24004KT 6SM BR BKN100=

USA.gov is the U.S. government's official web portal to all federal, state and local government web resources and services.